sensor_id;sensor_type;location;lat;lon;timestamp;pressure;altitude;pressure_sealevel;temperature;humidity
78343;BME280;67618;52.444;21.192;2023-03-01T00:09:38;101793.91;;;-2.05;71.02
78343;BME280;67618;52.444;21.192;2023-03-01T00:19:40;101789.75;;;-2.23;71.59
78343;BME280;67618;52.444;21.192;2023-03-01T00:29:41;101793.60;;;-2.34;72.34
78343;BME280;67618;52.444;21.192;2023-03-01T00:39:42;101791.38;;;-2.19;72.33
78343;BME280;67618;52.444;21.192;2023-03-01T00:49:44;101775.42;;;-2.18;72.63
78343;BME280;67618;52.444;21.192;2023-03-01T00:59:45;101775.77;;;-2.32;72.74
78343;BME280;67618;52.444;21.192;2023-03-01T01:09:46;101770.38;;;-2.33;72.96
78343;BME280;67618;52.444;21.192;2023-03-01T01:19:48;101770.15;;;-2.32;73.24
78343;BME280;67618;52.444;21.192;2023-03-01T01:29:49;101767.37;;;-2.18;72.95
78343;BME280;67618;52.444;21.192;2023-03-01T01:39:51;101752.86;;;-2.18;73.00
78343;BME280;67618;52.444;21.192;2023-03-01T01:49:54;101743.14;;;-2.27;73.13
78343;BME280;67618;52.444;21.192;2023-03-01T01:59:59;101738.63;;;-2.23;73.59
78343;BME280;67618;52.444;21.192;2023-03-01T02:10:02;101720.73;;;-2.12;73.43
78343;BME280;67618;52.444;21.192;2023-03-01T02:20:27;101717.94;;;-2.02;73.22
78343;BME280;67618;52.444;21.192;2023-03-01T02:30:34;101703.13;;;-1.94;72.66
78343;BME280;67618;52.444;21.192;2023-03-01T02:40:37;101692.00;;;-2.17;73.01
78343;BME280;67618;52.444;21.192;2023-03-01T03:00:57;101671.39;;;-2.61;75.19
78343;BME280;67618;52.444;21.192;2023-03-01T03:10:58;101675.05;;;-2.57;75.58
78343;BME280;67618;52.444;21.192;2023-03-01T03:21:00;101672.60;;;-2.58;75.77
78343;BME280;67618;52.444;21.192;2023-03-01T03:31:01;101671.89;;;-2.49;75.81
78343;BME280;67618;52.444;21.192;2023-03-01T03:41:05;101651.02;;;-2.51;75.52
78343;BME280;67618;52.444;21.192;2023-03-01T03:51:13;101643.92;;;-2.55;75.73
78343;BME280;67618;52.444;21.192;2023-03-01T04:01:15;101638.98;;;-2.40;75.51
78343;BME280;67618;52.444;21.192;2023-03-01T04:11:16;101648.38;;;-2.32;75.32
78343;BME280;67618;52.444;21.192;2023-03-01T04:21:18;101616.35;;;-2.41;75.40
78343;BME280;67618;52.444;21.192;2023-03-01T04:31:20;101599.06;;;-2.49;75.58
78343;BME280;67618;52.444;21.192;2023-03-01T04:41:23;101600.83;;;-2.55;76.03
78343;BME280;67618;52.444;21.192;2023-03-01T04:51:24;101596.48;;;-2.54;76.60
78343;BME280;67618;52.444;21.192;2023-03-01T05:01:26;101605.00;;;-2.52;76.54
78343;BME280;67618;52.444;21.192;2023-03-01T05:11:27;101609.39;;;-2.45;76.55
78343;BME280;67618;52.444;21.192;2023-03-01T05:21:28;101616.36;;;-2.20;76.22
78343;BME280;67618;52.444;21.192;2023-03-01T05:31:30;101630.66;;;-1.98;75.66
78343;BME280;67618;52.444;21.192;2023-03-01T05:41:31;101643.80;;;-1.93;75.15
78343;BME280;67618;52.444;21.192;2023-03-01T05:51:33;101646.52;;;-2.09;75.34
78343;BME280;67618;52.444;21.192;2023-03-01T06:01:36;101643.20;;;-2.10;75.78
78343;BME280;67618;52.444;21.192;2023-03-01T06:11:40;101650.05;;;-2.10;75.92
78343;BME280;67618;52.444;21.192;2023-03-01T06:21:42;101648.23;;;-2.20;76.16
78343;BME280;67618;52.444;21.192;2023-03-01T06:31:43;101645.69;;;-2.09;75.82
78343;BME280;67618;52.444;21.192;2023-03-01T06:41:45;101640.79;;;-2.11;75.87
78343;BME280;67618;52.444;21.192;2023-03-01T06:51:46;101650.42;;;-2.02;75.99
78343;BME280;67618;52.444;21.192;2023-03-01T07:01:48;101651.84;;;-1.80;75.54
78343;BME280;67618;52.444;21.192;2023-03-01T07:11:49;101641.02;;;-1.76;75.61
78343;BME280;67618;52.444;21.192;2023-03-01T07:21:51;101635.50;;;-1.56;75.65
78343;BME280;67618;52.444;21.192;2023-03-01T07:31:52;101642.33;;;-1.37;75.33
78343;BME280;67618;52.444;21.192;2023-03-01T07:41:53;101644.87;;;-1.16;75.28
78343;BME280;67618;52.444;21.192;2023-03-01T07:51:55;101648.71;;;-0.74;74.74
78343;BME280;67618;52.444;21.192;2023-03-01T08:01:56;101650.75;;;-0.35;74.30
78343;BME280;67618;52.444;21.192;2023-03-01T08:11:58;101656.43;;;0.12;73.94
78343;BME280;67618;52.444;21.192;2023-03-01T08:22:01;101653.70;;;0.45;73.27
78343;BME280;67618;52.444;21.192;2023-03-01T08:32:02;101646.02;;;0.73;72.70
78343;BME280;67618;52.444;21.192;2023-03-01T08:42:04;101644.89;;;1.06;72.27
78343;BME280;67618;52.444;21.192;2023-03-01T08:52:05;101645.45;;;1.35;71.77
78343;BME280;67618;52.444;21.192;2023-03-01T09:02:16;101632.77;;;1.62;71.03
78343;BME280;67618;52.444;21.192;2023-03-01T09:12:18;101627.39;;;1.78;71.03
78343;BME280;67618;52.444;21.192;2023-03-01T09:22:19;101613.61;;;2.02;71.04
78343;BME280;67618;52.444;21.192;2023-03-01T09:32:21;101612.04;;;2.36;70.77
78343;BME280;67618;52.444;21.192;2023-03-01T09:42:22;101607.71;;;2.61;71.31
78343;BME280;67618;52.444;21.192;2023-03-01T09:53:00;101595.77;;;2.85;71.42
78343;BME280;67618;52.444;21.192;2023-03-01T10:03:16;101586.56;;;3.14;70.79
78343;BME280;67618;52.444;21.192;2023-03-01T10:13:45;101582.30;;;3.30;69.66
78343;BME280;67618;52.444;21.192;2023-03-01T10:23:50;101569.34;;;3.54;69.95
78343;BME280;67618;52.444;21.192;2023-03-01T10:33:52;101565.23;;;3.78;69.37
78343;BME280;67618;52.444;21.192;2023-03-01T10:43:58;101560.52;;;4.06;69.14
78343;BME280;67618;52.444;21.192;2023-03-01T10:54:00;101560.63;;;4.26;68.78
78343;BME280;67618;52.444;21.192;2023-03-01T11:14:17;101541.58;;;4.60;68.06
78343;BME280;67618;52.444;21.192;2023-03-01T11:24:19;101525.27;;;4.77;68.03
78343;BME280;67618;52.444;21.192;2023-03-01T11:34:38;101526.34;;;4.92;67.67
78343;BME280;67618;52.444;21.192;2023-03-01T11:44:43;101521.88;;;5.11;67.73
78343;BME280;67618;52.444;21.192;2023-03-01T12:05:42;101521.70;;;5.35;67.53
78343;BME280;67618;52.444;21.192;2023-03-01T12:16:02;101510.27;;;5.50;67.07
78343;BME280;67618;52.444;21.192;2023-03-01T12:57:20;101501.41;;;5.84;67.64
78343;BME280;67618;52.444;21.192;2023-03-01T13:07:39;101504.62;;;5.83;67.99
78343;BME280;67618;52.444;21.192;2023-03-01T13:17:44;101498.11;;;5.79;67.69
78343;BME280;67618;52.444;21.192;2023-03-01T13:27:46;101503.55;;;5.86;67.73
78343;BME280;67618;52.444;21.192;2023-03-01T13:37:48;101493.66;;;5.96;66.75
78343;BME280;67618;52.444;21.192;2023-03-01T13:47:56;101476.43;;;5.94;66.73
78343;BME280;67618;52.444;21.192;2023-03-01T13:58:03;101469.02;;;5.80;67.02
78343;BME280;67618;52.444;21.192;2023-03-01T14:08:18;101462.46;;;5.86;67.06
78343;BME280;67618;52.444;21.192;2023-03-01T14:18:39;101449.50;;;6.08;66.94
78343;BME280;67618;52.444;21.192;2023-03-01T14:28:44;101437.85;;;6.42;66.13
78343;BME280;67618;52.444;21.192;2023-03-01T14:38:47;101422.77;;;6.65;65.02
78343;BME280;67618;52.444;21.192;2023-03-01T14:48:54;101417.66;;;6.75;64.54
78343;BME280;67618;52.444;21.192;2023-03-01T14:58:58;101412.98;;;6.81;64.50
78343;BME280;67618;52.444;21.192;2023-03-01T15:08:59;101403.95;;;7.00;64.31
78343;BME280;67618;52.444;21.192;2023-03-01T15:19:06;101402.13;;;7.37;63.75
78343;BME280;67618;52.444;21.192;2023-03-01T15:29:18;101393.23;;;8.56;61.05
78343;BME280;67618;52.444;21.192;2023-03-01T15:39:43;101381.94;;;7.94;60.25
78343;BME280;67618;52.444;21.192;2023-03-01T15:49:45;101381.88;;;7.26;61.91
78343;BME280;67618;52.444;21.192;2023-03-01T15:59:46;101380.45;;;6.72;63.13
78343;BME280;67618;52.444;21.192;2023-03-01T16:09:48;101380.33;;;6.25;64.09
78343;BME280;67618;52.444;21.192;2023-03-01T16:19:49;101377.27;;;5.88;64.79
78343;BME280;67618;52.444;21.192;2023-03-01T16:29:50;101375.45;;;5.57;65.56
78343;BME280;67618;52.444;21.192;2023-03-01T16:39:52;101367.42;;;5.34;66.28
78343;BME280;67618;52.444;21.192;2023-03-01T16:49:53;101370.73;;;5.09;66.90
78343;BME280;67618;52.444;21.192;2023-03-01T16:59:55;101373.14;;;4.84;67.32
78343;BME280;67618;52.444;21.192;2023-03-01T17:09:56;101389.11;;;4.65;67.17
78343;BME280;67618;52.444;21.192;2023-03-01T17:19:58;101388.91;;;4.46;67.29
78343;BME280;67618;52.444;21.192;2023-03-01T17:29:59;101377.20;;;3.96;68.71
78343;BME280;67618;52.444;21.192;2023-03-01T17:40:01;101378.14;;;3.67;70.28
78343;BME280;67618;52.444;21.192;2023-03-01T17:50:03;101372.92;;;3.62;70.94
78343;BME280;67618;52.444;21.192;2023-03-01T18:00:05;101374.63;;;3.57;71.44
78343;BME280;67618;52.444;21.192;2023-03-01T18:10:08;101377.13;;;3.51;70.30
78343;BME280;67618;52.444;21.192;2023-03-01T18:20:10;101385.73;;;3.25;69.44
78343;BME280;67618;52.444;21.192;2023-03-01T18:30:12;101389.10;;;3.02;69.61
78343;BME280;67618;52.444;21.192;2023-03-01T18:40:14;101383.34;;;2.85;69.61
78343;BME280;67618;52.444;21.192;2023-03-01T18:50:16;101384.98;;;2.63;70.28
78343;BME280;67618;52.444;21.192;2023-03-01T19:00:18;101387.76;;;2.53;70.43
78343;BME280;67618;52.444;21.192;2023-03-01T19:10:20;101392.14;;;2.39;70.56
78343;BME280;67618;52.444;21.192;2023-03-01T19:20:21;101400.98;;;2.17;71.10
78343;BME280;67618;52.444;21.192;2023-03-01T19:30:23;101395.58;;;1.89;71.63
78343;BME280;67618;52.444;21.192;2023-03-01T19:40:24;101391.61;;;1.82;73.35
78343;BME280;67618;52.444;21.192;2023-03-01T19:50:25;101401.42;;;1.93;73.63
78343;BME280;67618;52.444;21.192;2023-03-01T20:00:27;101400.36;;;1.96;73.38
78343;BME280;67618;52.444;21.192;2023-03-01T20:10:30;101409.90;;;1.94;72.98
78343;BME280;67618;52.444;21.192;2023-03-01T20:20:31;101421.40;;;1.79;72.43
78343;BME280;67618;52.444;21.192;2023-03-01T20:30:33;101421.93;;;1.65;72.23
78343;BME280;67618;52.444;21.192;2023-03-01T20:40:36;101425.48;;;1.50;72.57
78343;BME280;67618;52.444;21.192;2023-03-01T20:50:39;101424.26;;;1.42;72.58
78343;BME280;67618;52.444;21.192;2023-03-01T21:00:41;101426.66;;;1.35;72.85
78343;BME280;67618;52.444;21.192;2023-03-01T21:10:48;101426.92;;;1.26;73.14
78343;BME280;67618;52.444;21.192;2023-03-01T21:20:50;101414.65;;;1.15;73.40
78343;BME280;67618;52.444;21.192;2023-03-01T21:30:51;101409.30;;;1.08;74.67
78343;BME280;67618;52.444;21.192;2023-03-01T21:40:53;101396.44;;;1.09;74.78
78343;BME280;67618;52.444;21.192;2023-03-01T21:50:56;101399.66;;;1.04;74.39
78343;BME280;67618;52.444;21.192;2023-03-01T22:01:09;101399.09;;;1.03;74.19
78343;BME280;67618;52.444;21.192;2023-03-01T22:11:11;101386.87;;;0.93;74.15
78343;BME280;67618;52.444;21.192;2023-03-01T22:21:13;101386.73;;;0.86;74.39
78343;BME280;67618;52.444;21.192;2023-03-01T22:31:15;101382.33;;;0.78;73.99
78343;BME280;67618;52.444;21.192;2023-03-01T22:41:16;101389.70;;;0.71;73.81
78343;BME280;67618;52.444;21.192;2023-03-01T22:51:20;101402.10;;;0.55;74.21
78343;BME280;67618;52.444;21.192;2023-03-01T23:01:23;101403.27;;;0.41;74.51
78343;BME280;67618;52.444;21.192;2023-03-01T23:11:26;101399.31;;;0.38;74.95
78343;BME280;67618;52.444;21.192;2023-03-01T23:21:27;101395.89;;;0.32;75.60
78343;BME280;67618;52.444;21.192;2023-03-01T23:31:29;101389.67;;;0.28;76.32
78343;BME280;67618;52.444;21.192;2023-03-01T23:41:32;101392.73;;;0.30;76.20
78343;BME280;67618;52.444;21.192;2023-03-01T23:51:34;101390.59;;;0.32;75.53
